Time;durP1;ratioP1;P1;durP2;ratioP2;P2;SDS_P1;SDS_P2;PMS_P1;PMS_P2;Temp;Humidity;BMP_temperature;BMP_pressure;BME280_temperature;BME280_humidity;BME280_pressure;Samples;Min_cycle;Max_cycle;Signal;HPM_P1;HPM_P2
2021/07/03 00:00:59;;;;;;;;;;;;;;;21.67;59.97;101240.56;2059621;28;4049;-31
2021/07/03 00:02:26;;;;;;;;;;;;;;;21.66;59.90;101242.59;2058567;28;3918;-30
2021/07/03 00:03:53;;;;;;;;;;;;;;;21.65;59.92;101242.97;2058894;28;4036;-31
2021/07/03 00:05:19;;;;;;;;;;;;;;;21.65;60.01;101240.13;2059616;28;3891;-32
2021/07/03 00:06:46;;;;;;;;;;;;;;;21.64;60.02;101241.28;2057897;28;4049;-34
2021/07/03 00:08:12;;;;;;;;;;;;;;;21.63;60.12;101245.31;2058117;28;3975;-31
2021/07/03 00:09:39;;;;;;;;;;;;;;;21.62;60.10;101250.19;2057666;28;3973;-32
2021/07/03 00:11:05;;;;;;;;;;;;;;;21.61;60.01;101248.50;2058687;28;4057;-31
2021/07/03 00:12:32;;;;;;;;;;;;;;;21.59;60.28;101242.34;2057052;28;3928;-31
2021/07/03 00:13:59;;;;;;;;;;;;;;;21.60;60.10;101249.69;2059247;28;4079;-32
2021/07/03 00:15:25;;;;;;;;;;;;;;;21.56;60.29;101251.56;2059022;28;3932;-31
2021/07/03 00:16:52;;;;;;;;;;;;;;;21.54;60.32;101237.66;2058575;28;4183;-30
2021/07/03 00:18:19;;;;;;;;;;;;;;;21.53;60.40;101241.72;2058929;28;3944;-30
2021/07/03 00:19:45;;;;;;;;;;;;;;;21.53;60.34;101247.41;2058223;28;4246;-30
2021/07/03 00:21:11;;;;;;;;;;;;;;;21.55;60.20;101247.03;2059656;28;3963;-30
2021/07/03 00:22:39;;;;;;;;;;;;;;;21.54;60.45;101251.06;2058585;28;3938;-30
2021/07/03 00:24:05;;;;;;;;;;;;;;;21.52;60.23;101250.59;2059192;28;4062;-30
2021/07/03 00:25:32;;;;;;;;;;;;;;;21.52;60.39;101244.88;2058065;28;3976;-30
2021/07/03 00:26:58;;;;;;;;;;;;;;;21.51;60.29;101237.53;2057974;28;5095;-33
2021/07/03 00:28:24;;;;;;;;;;;;;;;21.50;60.39;101242.41;2058609;28;3970;-33
2021/07/03 00:29:50;;;;;;;;;;;;;;;21.49;60.39;101240.72;2058978;28;4207;-31
2021/07/03 00:31:17;;;;;;;;;;;;;;;21.50;60.56;101241.56;2059743;28;4151;-32
2021/07/03 00:32:44;;;;;;;;;;;;;;;21.49;60.40;101245.59;2056579;28;4041;-32
2021/07/03 00:34:11;;;;;;;;;;;;;;;21.49;60.50;101245.59;2059190;28;4014;-31
2021/07/03 00:35:37;;;;;;;;;;;;;;;21.48;60.39;101241.09;2058114;28;3922;-30
2021/07/03 00:37:03;;;;;;;;;;;;;;;21.48;60.29;101241.09;2057736;28;4219;-31
2021/07/03 00:38:29;;;;;;;;;;;;;;;21.47;60.58;101247.94;2060039;28;3875;-31
2021/07/03 00:39:55;;;;;;;;;;;;;;;21.46;60.46;101244.25;2058961;28;4037;-33
2021/07/03 00:41:22;;;;;;;;;;;;;;;21.44;60.61;101248.63;2060914;28;3991;-31
2021/07/03 00:42:50;;;;;;;;;;;;;;;21.45;60.66;101241.75;2060453;28;4202;-31
2021/07/03 00:44:17;;;;;;;;;;;;;;;21.44;60.56;101245.78;2059832;28;3951;-33
2021/07/03 00:45:43;;;;;;;;;;;;;;;21.42;60.59;101242.44;2059256;28;4250;-30
2021/07/03 00:47:09;;;;;;;;;;;;;;;21.42;60.79;101242.44;2059871;28;3923;-31
2021/07/03 00:48:36;;;;;;;;;;;;;;;21.41;60.58;101246.47;2059489;28;4023;-32
2021/07/03 00:50:02;;;;;;;;;;;;;;;21.40;60.53;101245.66;2058549;28;4244;-33
2021/07/03 00:51:29;;;;;;;;;;;;;;;21.40;60.65;101244.81;2059753;28;3903;-31
2021/07/03 00:52:55;;;;;;;;;;;;;;;21.38;60.54;101245.16;2060101;28;4039;-30
2021/07/03 00:54:22;;;;;;;;;;;;;;;21.39;60.74;101243.13;2059979;28;3952;-31
2021/07/03 00:55:48;;;;;;;;;;;;;;;21.40;60.55;101250.53;2060255;28;5189;-33
2021/07/03 00:57:15;;;;;;;;;;;;;;;21.38;60.80;101244.34;2058178;28;4014;-30
2021/07/03 00:58:42;;;;;;;;;;;;;;;21.38;60.60;101244.34;2058995;28;3941;-31
2021/07/03 01:00:09;;;;;;;;;;;;;;;21.37;60.51;101243.50;2058822;28;4210;-31
2021/07/03 01:01:38;;;;;;;;;;;;;;;21.34;60.58;101245.00;2060479;28;4098;-31
2021/07/03 01:03:06;;;;;;;;;;;;;;;21.34;60.75;101242.16;2060463;28;4085;-31
2021/07/03 01:04:33;;;;;;;;;;;;;;;21.35;60.59;101246.66;2060693;28;3917;-31
2021/07/03 01:05:59;;;;;;;;;;;;;;;21.33;60.66;101249.00;2059822;28;5165;-32
2021/07/03 01:07:27;;;;;;;;;;;;;;;21.33;60.58;101234.78;2057860;28;3947;-31
2021/07/03 01:08:54;;;;;;;;;;;;;;;21.33;60.61;101256.72;2059014;28;4332;-32
2021/07/03 01:10:21;;;;;;;;;;;;;;;21.32;60.67;101241.66;2059429;28;3953;-32
2021/07/03 01:11:48;;;;;;;;;;;;;;;21.31;60.78;101248.53;2059858;28;4051;-31
2021/07/03 01:13:15;;;;;;;;;;;;;;;21.31;60.71;101241.97;2061386;28;3949;-32
2021/07/03 01:14:44;;;;;;;;;;;;;;;21.30;60.62;101248.88;2059646;28;4238;-31
2021/07/03 01:16:11;;;;;;;;;;;;;;;21.30;60.76;101243.16;2057656;28;3973;-32
2021/07/03 01:17:39;;;;;;;;;;;;;;;21.28;60.72;101246.38;2058594;28;3918;-31
2021/07/03 01:19:07;;;;;;;;;;;;;;;21.26;60.80;101237.34;2058143;28;4225;-34
2021/07/03 01:20:34;;;;;;;;;;;;;;;21.25;60.84;101241.34;2059874;28;4104;-31
2021/07/03 01:22:02;;;;;;;;;;;;;;;21.26;60.74;101247.91;2059026;28;4260;-31
2021/07/03 01:23:29;;;;;;;;;;;;;;;21.25;60.82;101252.72;2059072;28;3953;-31
2021/07/03 01:24:55;;;;;;;;;;;;;;;21.22;60.74;101242.03;2059788;28;4061;-33
2021/07/03 01:26:23;;;;;;;;;;;;;;;21.24;60.86;101244.56;2059730;28;3875;-31
2021/07/03 01:27:50;;;;;;;;;;;;;;;21.22;60.96;101236.34;2056534;28;4064;-34
2021/07/03 01:29:18;;;;;;;;;;;;;;;21.22;60.84;101232.69;2058007;28;4011;-33
2021/07/03 01:30:45;;;;;;;;;;;;;;;21.22;60.86;101239.19;2057301;28;4083;-30
2021/07/03 01:32:13;;;;;;;;;;;;;;;21.20;60.88;101241.59;2056820;28;4126;-32
2021/07/03 01:33:40;;;;;;;;;;;;;;;21.20;60.91;101247.28;2060052;28;3949;-30
2021/07/03 01:35:07;;;;;;;;;;;;;;;21.19;60.89;101242.75;2058465;28;4075;-34
2021/07/03 01:36:36;;;;;;;;;;;;;;;21.18;60.88;101240.25;2060124;28;3967;-31
2021/07/03 01:38:02;;;;;;;;;;;;;;;21.17;60.95;101245.09;2059583;28;4869;-31
2021/07/03 01:39:30;;;;;;;;;;;;;;;21.16;61.09;101243.44;2057987;28;3970;-32
2021/07/03 01:40:57;;;;;;;;;;;;;;;21.17;60.98;101241.41;2058802;28;4057;-34
2021/07/03 01:42:23;;;;;;;;;;;;;;;21.16;60.98;101242.59;2059348;28;3904;-31
2021/07/03 01:43:51;;;;;;;;;;;;;;;21.14;61.16;101245.78;2058557;28;4272;-31
2021/07/03 01:45:17;;;;;;;;;;;;;;;21.14;60.99;101245.78;2060297;28;3951;-33
2021/07/03 01:46:44;;;;;;;;;;;;;;;21.13;61.03;101239.25;2059994;28;4300;-32
2021/07/03 01:48:11;;;;;;;;;;;;;;;21.13;61.05;101239.25;2058357;28;3899;-32
2021/07/03 01:49:40;;;;;;;;;;;;;;;21.13;60.95;101238.44;2059837;28;3942;-32
2021/07/03 01:51:07;;;;;;;;;;;;;;;21.12;60.91;101243.28;2057797;28;4126;-30
2021/07/03 01:52:37;;;;;;;;;;;;;;;21.13;61.07;101239.25;2059629;28;3921;-31
2021/07/03 01:54:05;;;;;;;;;;;;;;;21.11;61.05;101235.91;2057754;28;4105;-31
2021/07/03 01:55:31;;;;;;;;;;;;;;;21.11;60.94;101233.06;2041661;28;3937;-33
2021/07/03 01:56:59;;;;;;;;;;;;;;;21.10;60.99;101230.59;2041587;29;4211;-31
2021/07/03 01:58:27;;;;;;;;;;;;;;;21.09;61.02;101238.28;2043518;28;3987;-31
2021/07/03 01:59:54;;;;;;;;;;;;;;;21.09;61.18;101232.59;2040980;28;4289;-31
2021/07/03 02:01:20;;;;;;;;;;;;;;;21.09;61.07;101231.78;2045113;28;4880;-31
2021/07/03 02:02:47;;;;;;;;;;;;;;;21.07;61.18;101229.25;2042792;28;4269;-34
2021/07/03 02:04:16;;;;;;;;;;;;;;;21.07;61.15;101234.13;2043023;28;3967;-32
2021/07/03 02:05:42;;;;;;;;;;;;;;;21.06;61.14;101226.75;2044232;29;3919;-31
2021/07/03 02:07:09;;;;;;;;;;;;;;;21.05;61.14;101223.06;2042516;29;4053;-31
2021/07/03 02:08:36;;;;;;;;;;;;;;;21.05;61.27;101230.78;2044398;28;4030;-34
2021/07/03 02:10:04;;;;;;;;;;;;;;;21.01;61.29;101229.81;2043084;28;4123;-32
2021/07/03 02:11:30;;;;;;;;;;;;;;;21.00;61.22;101226.13;2042939;28;3913;-33
2021/07/03 02:12:58;;;;;;;;;;;;;;;20.99;61.33;101221.63;2042603;28;4250;-31
2021/07/03 02:14:24;;;;;;;;;;;;;;;20.99;61.25;101218.75;2044425;28;3924;-32
2021/07/03 02:15:51;;;;;;;;;;;;;;;20.99;61.28;101217.94;2043634;29;4077;-31
2021/07/03 02:17:18;;;;;;;;;;;;;;;20.99;61.30;101226.47;2043467;28;3984;-32
2021/07/03 02:18:45;;;;;;;;;;;;;;;20.98;61.21;101219.97;2042589;29;5276;-32
2021/07/03 02:20:12;;;;;;;;;;;;;;;20.96;61.23;101228.00;2043461;28;4014;-30
2021/07/03 02:21:41;;;;;;;;;;;;;;;20.96;61.35;101222.31;2042702;28;3939;-30
2021/07/03 02:23:08;;;;;;;;;;;;;;;20.96;61.27;101227.16;2037780;28;4273;-32
2021/07/03 02:24:35;;;;;;;;;;;;;;;20.94;61.40;101223.81;2043159;28;3990;-30
2021/07/03 02:26:02;;;;;;;;;;;;;;;20.94;61.21;101221.81;2042692;28;4044;-32
2021/07/03 02:27:29;;;;;;;;;;;;;;;20.93;61.14;101222.16;2044203;28;3904;-31
2021/07/03 02:28:56;;;;;;;;;;;;;;;20.91;61.19;101220.47;2042369;28;4239;-31
2021/07/03 02:30:23;;;;;;;;;;;;;;;20.91;61.27;101223.31;2044352;28;3945;-32
2021/07/03 02:31:50;;;;;;;;;;;;;;;20.91;61.32;101220.47;2042267;28;4263;-30
2021/07/03 02:33:17;;;;;;;;;;;;;;;20.89;61.36;101225.66;2043365;28;4149;-33
2021/07/03 02:34:43;;;;;;;;;;;;;;;20.89;61.25;101224.84;2043618;28;4129;-30
2021/07/03 02:36:10;;;;;;;;;;;;;;;20.87;61.29;101222.34;2042971;28;3942;-32
2021/07/03 02:37:37;;;;;;;;;;;;;;;20.87;61.42;101227.22;2044167;29;3949;-31
2021/07/03 02:39:04;;;;;;;;;;;;;;;20.84;61.28;101220.19;2039945;28;4277;-30
2021/07/03 02:40:30;;;;;;;;;;;;;;;20.84;61.18;101222.19;2044394;29;3954;-31
2021/07/03 02:41:58;;;;;;;;;;;;;;;20.84;61.31;101222.19;2043208;28;4273;-31
2021/07/03 02:43:24;;;;;;;;;;;;;;;20.83;61.31;101218.50;2043958;29;3979;-33
2021/07/03 02:44:51;;;;;;;;;;;;;;;20.82;61.31;101218.88;2043103;28;4240;-30
2021/07/03 02:46:19;;;;;;;;;;;;;;;20.79;61.31;101220.38;2043277;29;3934;-34
2021/07/03 02:47:45;;;;;;;;;;;;;;;20.79;61.58;101219.56;2041995;28;4240;-34
2021/07/03 02:49:11;;;;;;;;;;;;;;;20.79;61.41;101217.53;2043844;29;3983;-32
2021/07/03 02:50:38;;;;;;;;;;;;;;;20.77;61.46;101214.19;2040474;28;3991;-30
2021/07/03 02:52:05;;;;;;;;;;;;;;;20.77;61.44;101214.19;2042095;29;4258;-32
2021/07/03 02:53:32;;;;;;;;;;;;;;;20.77;61.51;101219.88;2043342;28;3937;-32
2021/07/03 02:54:59;;;;;;;;;;;;;;;20.76;61.53;101217.38;2046287;28;4253;-33
2021/07/03 02:56:26;;;;;;;;;;;;;;;20.76;61.42;101220.22;2058818;28;3939;-30
2021/07/03 02:57:53;;;;;;;;;;;;;;;20.75;61.50;101215.72;2059076;28;4240;-34
2021/07/03 02:59:20;;;;;;;;;;;;;;;20.74;61.33;101217.72;2059573;28;3935;-30
2021/07/03 03:00:47;;;;;;;;;;;;;;;20.73;61.38;101220.91;2057215;28;4088;-30
2021/07/03 03:02:13;;;;;;;;;;;;;;;20.71;61.55;101215.56;2058415;28;3917;-30
2021/07/03 03:03:43;;;;;;;;;;;;;;;20.69;61.47;101212.22;2058776;28;3987;-30
2021/07/03 03:05:09;;;;;;;;;;;;;;;20.69;61.71;101213.06;2059315;28;4216;-30
2021/07/03 03:06:37;;;;;;;;;;;;;;;20.67;61.48;101214.56;2059195;28;3910;-30
2021/07/03 03:08:03;;;;;;;;;;;;;;;20.66;61.46;101219.44;2056693;28;4313;-30
2021/07/03 03:09:30;;;;;;;;;;;;;;;20.66;61.57;101210.06;2058816;28;3982;-30
2021/07/03 03:10:57;;;;;;;;;;;;;;;20.65;61.76;101212.09;2058179;28;4051;-30
2021/07/03 03:12:24;;;;;;;;;;;;;;;20.64;61.68;101204.72;2059493;28;3997;-30
2021/07/03 03:13:51;;;;;;;;;;;;;;;20.63;61.66;101217.28;2058450;28;4237;-30
2021/07/03 03:15:17;;;;;;;;;;;;;;;20.63;61.71;101207.91;2058832;28;3939;-31
2021/07/03 03:16:47;;;;;;;;;;;;;;;20.62;61.62;101220.44;2057957;28;4221;-31
2021/07/03 03:18:14;;;;;;;;;;;;;;;20.60;61.56;101215.13;2058546;28;4011;-30
2021/07/03 03:19:41;;;;;;;;;;;;;;;20.59;61.55;101210.63;2059442;28;3929;-31
2021/07/03 03:21:08;;;;;;;;;;;;;;;20.60;61.74;101214.28;2057108;28;4245;-30
2021/07/03 03:22:36;;;;;;;;;;;;;;;20.57;61.84;101212.13;2059684;28;4149;-30
2021/07/03 03:24:03;;;;;;;;;;;;;;;20.57;61.74;101212.13;2057420;28;4226;-32
2021/07/03 03:25:32;;;;;;;;;;;;;;;;;;2059303;28;3945;-30
2021/07/03 03:26:59;;;;;;;;;;;;;;;20.56;61.70;101213.28;2056447;28;4038;-30
2021/07/03 03:28:25;;;;;;;;;;;;;;;20.54;61.86;101213.66;2057586;28;4064;-32
2021/07/03 03:29:53;;;;;;;;;;;;;;;20.55;61.83;101220.16;2059286;28;4074;-32
2021/07/03 03:31:21;;;;;;;;;;;;;;;20.54;62.04;101221.31;2060786;28;3921;-30
2021/07/03 03:32:48;;;;;;;;;;;;;;;20.52;61.88;101220.81;2059491;28;4064;-31
2021/07/03 03:34:15;;;;;;;;;;;;;;;20.52;61.82;101217.97;2059041;28;3970;-32
2021/07/03 03:35:43;;;;;;;;;;;;;;;20.51;61.81;101217.16;2059691;28;3940;-30
2021/07/03 03:37:10;;;;;;;;;;;;;;;20.51;61.86;101217.16;2057570;28;4157;-30
2021/07/03 03:38:37;;;;;;;;;;;;;;;20.50;61.86;101211.78;2058258;28;3917;-33
2021/07/03 03:40:04;;;;;;;;;;;;;;;20.49;61.89;101210.94;2057745;28;4237;-32
2021/07/03 03:41:31;;;;;;;;;;;;;;;20.47;62.21;101208.44;2059210;28;3943;-31
2021/07/03 03:42:58;;;;;;;;;;;;;;;20.46;62.15;101218.16;2058094;28;4304;-32
2021/07/03 03:44:25;;;;;;;;;;;;;;;20.46;61.96;101209.63;2057845;28;3919;-31
2021/07/03 03:45:53;;;;;;;;;;;;;;;20.46;62.01;101208.78;2059513;28;4214;-33
2021/07/03 03:47:20;;;;;;;;;;;;;;;20.44;62.06;101211.13;2058014;28;3964;-31
2021/07/03 03:48:48;;;;;;;;;;;;;;;20.43;62.08;101216.00;2058008;28;4265;-30
2021/07/03 03:50:15;;;;;;;;;;;;;;;20.42;62.23;101214.31;2058118;28;3906;-31
2021/07/03 03:51:43;;;;;;;;;;;;;;;20.43;62.13;101210.31;2058659;28;3976;-30
2021/07/03 03:53:09;;;;;;;;;;;;;;;20.43;62.11;101209.47;2059411;28;4050;-30
2021/07/03 03:54:37;;;;;;;;;;;;;;;20.42;62.29;101217.16;2059355;28;3953;-29
2021/07/03 03:56:03;;;;;;;;;;;;;;;20.40;62.16;101211.00;2058530;28;4111;-32
2021/07/03 03:57:31;;;;;;;;;;;;;;;20.41;62.19;101214.66;2049914;28;3926;-31
2021/07/03 03:58:58;;;;;;;;;;;;;;;20.39;62.18;101214.97;2058060;28;4102;-32
2021/07/03 04:00:26;;;;;;;;;;;;;;;20.39;62.17;101212.16;2057960;28;3935;-30
2021/07/03 04:01:52;;;;;;;;;;;;;;;20.38;62.37;101216.16;2059175;28;4079;-32
2021/07/03 04:03:20;;;;;;;;;;;;;;;20.38;62.29;101218.19;2058028;28;3928;-31
2021/07/03 04:04:49;;;;;;;;;;;;;;;20.37;62.50;101211.69;2058840;28;4230;-31
2021/07/03 04:06:16;;;;;;;;;;;;;;;20.37;62.31;101200.31;2059372;28;3919;-30
2021/07/03 04:07:43;;;;;;;;;;;;;;;20.36;62.45;101212.81;2059154;28;4252;-30
2021/07/03 04:09:10;;;;;;;;;;;;;;;20.38;62.58;101215.34;2057157;28;4296;-30
2021/07/03 04:10:36;;;;;;;;;;;;;;;20.36;62.64;101209.16;2059243;28;3930;-30
2021/07/03 04:12:03;;;;;;;;;;;;;;;20.36;62.49;101210.00;2058271;28;4113;-31
2021/07/03 04:13:29;;;;;;;;;;;;;;;20.35;62.55;101222.53;2058755;28;3988;-32
2021/07/03 04:14:58;;;;;;;;;;;;;;;20.35;62.52;101213.19;2060393;28;4055;-34
2021/07/03 04:16:25;;;;;;;;;;;;;;;20.34;62.51;101214.34;2061667;28;4003;-30
2021/07/03 04:17:53;;;;;;;;;;;;;;;20.38;62.29;101221.84;2058760;28;4095;-30
2021/07/03 04:19:19;;;;;;;;;;;;;;;20.41;62.19;101218.34;2061218;28;3942;-32
2021/07/03 04:20:47;;;;;;;;;;;;;;;20.43;62.08;101221.69;2059197;28;4239;-32
2021/07/03 04:22:14;;;;;;;;;;;;;;;20.46;61.92;101218.16;2059983;28;3932;-33
2021/07/03 04:23:41;;;;;;;;;;;;;;;20.49;61.75;101218.66;2060734;28;4103;-32
2021/07/03 04:25:11;;;;;;;;;;;;;;;20.51;61.79;101219.13;2061018;28;4080;-30
2021/07/03 04:26:38;;;;;;;;;;;;;;;20.53;61.66;101216.78;2060564;28;3932;-32
2021/07/03 04:28:05;;;;;;;;;;;;;;;20.54;61.45;101216.50;2056972;28;4100;-33
2021/07/03 04:29:31;;;;;;;;;;;;;;;20.56;61.43;101213.28;2060642;28;3994;-30
2021/07/03 04:30:59;;;;;;;;;;;;;;;20.57;61.56;101214.97;2058905;28;4087;-32
2021/07/03 04:32:25;;;;;;;;;;;;;;;20.59;61.34;101213.47;2060690;28;3962;-30
2021/07/03 04:33:53;;;;;;;;;;;;;;;20.60;61.34;101219.97;2061115;28;4269;-30
2021/07/03 04:35:21;;;;;;;;;;;;;;;20.62;61.35;101223.28;2061187;28;3947;-30
2021/07/03 04:36:47;;;;;;;;;;;;;;;20.63;61.28;101225.81;2059688;28;4225;-33
2021/07/03 04:38:14;;;;;;;;;;;;;;;20.64;61.18;101223.78;2059512;28;5198;-31
2021/07/03 04:39:42;;;;;;;;;;;;;;;20.66;61.24;101229.97;2059327;28;3913;-30
2021/07/03 04:41:08;;;;;;;;;;;;;;;20.68;61.18;101224.78;2059716;28;4043;-31
2021/07/03 04:42:35;;;;;;;;;;;;;;;20.68;61.13;101217.09;2060284;28;3972;-30
2021/07/03 04:44:05;;;;;;;;;;;;;;;20.69;61.14;101223.59;2058462;28;4281;-34
2021/07/03 04:45:32;;;;;;;;;;;;;;;20.71;61.12;101211.91;2061140;28;3997;-31
2021/07/03 04:47:00;;;;;;;;;;;;;;;20.72;61.18;101219.25;2057826;28;4229;-31
2021/07/03 04:48:26;;;;;;;;;;;;;;;20.73;61.10;101223.75;2060099;28;3987;-31
2021/07/03 04:49:53;;;;;;;;;;;;;;;20.73;61.07;101213.22;2060155;28;5101;-31
2021/07/03 04:51:20;;;;;;;;;;;;;;;20.74;61.20;101231.94;2059803;28;3939;-31
2021/07/03 04:52:47;;;;;;;;;;;;;;;20.77;61.27;101221.91;2059559;28;4432;-32
2021/07/03 04:54:14;;;;;;;;;;;;;;;20.77;61.22;101225.56;2061280;28;3939;-30
2021/07/03 04:55:41;;;;;;;;;;;;;;;20.78;61.06;101224.38;2059208;28;3962;-33
2021/07/03 04:57:10;;;;;;;;;;;;;;;20.82;61.45;101225.38;2059576;28;4253;-30
2021/07/03 04:58:38;;;;;;;;;;;;;;;20.83;61.25;101220.53;2058405;28;3950;-32
2021/07/03 05:00:05;;;;;;;;;;;;;;;20.83;61.38;101223.38;2058358;28;4324;-31
2021/07/03 05:01:32;;;;;;;;;;;;;;;20.83;61.16;101223.38;2059658;28;4850;-31
2021/07/03 05:03:01;;;;;;;;;;;;;;;20.86;61.20;101219.84;2058520;28;4228;-30
2021/07/03 05:04:27;;;;;;;;;;;;;;;20.86;61.26;101214.16;2059544;28;3941;-33
2021/07/03 05:05:54;;;;;;;;;;;;;;;20.86;61.11;101214.97;2059881;28;4024;-30
2021/07/03 05:07:20;;;;;;;;;;;;;;;20.88;61.22;101220.34;2060732;28;3937;-30
2021/07/03 05:08:47;;;;;;;;;;;;;;;20.88;61.07;101217.50;2060648;28;4045;-30
2021/07/03 05:10:14;;;;;;;;;;;;;;;20.89;61.05;101219.97;2060566;28;3921;-30
2021/07/03 05:11:41;;;;;;;;;;;;;;;20.91;60.97;101220.47;2059690;28;3897;-35
2021/07/03 05:13:08;;;;;;;;;;;;;;;20.93;61.08;101223.00;2059921;28;4826;-30
2021/07/03 05:14:36;;;;;;;;;;;;;;;20.94;61.13;101221.81;2059491;28;4042;-34
2021/07/03 05:16:03;;;;;;;;;;;;;;;20.95;60.89;101220.66;2059371;28;4424;-30
2021/07/03 05:17:31;;;;;;;;;;;;;;;20.96;61.14;101212.94;2058963;28;3911;-30
2021/07/03 05:18:58;;;;;;;;;;;;;;;20.97;60.93;101211.75;2058505;28;4211;-30
2021/07/03 05:20:25;;;;;;;;;;;;;;;20.99;60.88;101220.78;2061119;28;3898;-33
2021/07/03 05:21:52;;;;;;;;;;;;;;;20.99;60.96;101220.78;2057956;28;4271;-30
2021/07/03 05:23:19;;;;;;;;;;;;;;;21.00;60.82;101219.59;2059931;28;4040;-31
2021/07/03 05:24:46;;;;;;;;;;;;;;;21.01;60.80;101218.44;2060437;28;4229;-30
2021/07/03 05:26:13;;;;;;;;;;;;;;;21.02;60.89;101225.78;2059135;28;4091;-30
2021/07/03 05:27:40;;;;;;;;;;;;;;;21.04;60.88;101229.13;2060110;28;3988;-30
2021/07/03 05:29:06;;;;;;;;;;;;;;;21.04;60.87;101223.44;2059136;28;4056;-31
2021/07/03 05:30:33;;;;;;;;;;;;;;;21.05;61.06;101230.78;2059728;28;3917;-30
2021/07/03 05:32:00;;;;;;;;;;;;;;;21.06;61.02;101230.44;2058898;28;4221;-31
2021/07/03 05:33:27;;;;;;;;;;;;;;;21.07;60.90;101231.28;2059057;28;3991;-35
2021/07/03 05:34:54;;;;;;;;;;;;;;;21.08;60.85;101230.09;2058874;28;4240;-31
2021/07/03 05:36:21;;;;;;;;;;;;;;;21.08;61.12;101232.94;2060499;28;4019;-32
2021/07/03 05:37:48;;;;;;;;;;;;;;;21.10;61.05;101233.44;2059555;28;4243;-31
2021/07/03 05:39:15;;;;;;;;;;;;;;;21.10;60.85;101236.28;2060563;28;3955;-34
2021/07/03 05:40:43;;;;;;;;;;;;;;;21.11;61.00;101240.78;2058887;28;3949;-36
2021/07/03 05:42:10;;;;;;;;;;;;;;;21.12;60.93;101231.09;2056636;28;5500;-36
2021/07/03 05:43:38;;;;;;;;;;;;;;;21.13;61.03;101232.75;2059651;28;3914;-33
2021/07/03 05:45:04;;;;;;;;;;;;;;;21.14;61.04;101231.56;2060178;28;4232;-32
2021/07/03 05:46:32;;;;;;;;;;;;;;;21.15;60.91;101233.25;2059643;28;4043;-34
2021/07/03 05:48:00;;;;;;;;;;;;;;;21.15;60.75;101227.53;2057769;28;4267;-31
2021/07/03 05:49:27;;;;;;;;;;;;;;;21.17;60.78;101232.88;2059726;28;3920;-34
2021/07/03 05:50:54;;;;;;;;;;;;;;;21.16;60.97;101237.75;2058854;28;4051;-34
2021/07/03 05:52:21;;;;;;;;;;;;;;;21.17;61.03;101239.41;2057575;28;4110;-32
2021/07/03 05:53:47;;;;;;;;;;;;;;;21.18;60.85;101241.09;2051999;28;4029;-34
2021/07/03 05:55:14;;;;;;;;;;;;;;;21.18;60.90;101226.84;2058697;28;4003;-34
2021/07/03 05:56:41;;;;;;;;;;;;;;;21.20;60.90;101235.03;2059792;28;3936;-34
2021/07/03 05:58:08;;;;;;;;;;;;;;;21.20;60.82;101232.19;2058889;28;4243;-33
2021/07/03 05:59:35;;;;;;;;;;;;;;;21.21;60.97;101231.03;2059233;28;4003;-33
2021/07/03 06:01:02;;;;;;;;;;;;;;;21.21;60.85;101229.00;2059447;28;4026;-35
2021/07/03 06:02:29;;;;;;;;;;;;;;;21.23;60.83;101237.22;2059686;28;3903;-31
2021/07/03 06:03:56;;;;;;;;;;;;;;;21.23;60.91;101242.91;2057253;28;4069;-33
2021/07/03 06:05:23;;;;;;;;;;;;;;;21.24;60.78;101236.84;2059926;28;3955;-36
2021/07/03 06:06:51;;;;;;;;;;;;;;;21.25;60.85;101229.13;2059160;28;4217;-33
2021/07/03 06:08:18;;;;;;;;;;;;;;;21.25;60.95;101234.84;2056844;28;3980;-34
2021/07/03 06:09:46;;;;;;;;;;;;;;;21.26;60.63;101231.66;2058387;28;4935;-35
2021/07/03 06:11:15;;;;;;;;;;;;;;;21.27;60.81;101227.63;2059690;28;3931;-33
2021/07/03 06:12:42;;;;;;;;;;;;;;;21.27;60.81;101244.69;2059156;28;4011;-33
2021/07/03 06:14:09;;;;;;;;;;;;;;;21.28;60.80;101235.00;2050902;28;4088;-37
2021/07/03 06:15:36;;;;;;;;;;;;;;;21.29;60.89;101224.44;2057316;28;3909;-36
2021/07/03 06:17:03;;;;;;;;;;;;;;;21.30;60.84;101235.47;2058116;28;4425;-34
2021/07/03 06:18:30;;;;;;;;;;;;;;;21.31;60.74;101230.59;2060052;28;4099;-33
2021/07/03 06:19:57;;;;;;;;;;;;;;;21.31;60.89;101228.63;2058424;28;4239;-32
2021/07/03 06:21:24;;;;;;;;;;;;;;;21.31;60.72;101222.91;2059373;28;4115;-37
2021/07/03 06:22:52;;;;;;;;;;;;;;;21.32;60.75;101230.28;2059592;28;4044;-35
2021/07/03 06:24:19;;;;;;;;;;;;;;;21.33;60.73;101222.56;2059899;28;3949;-32
2021/07/03 06:25:45;;;;;;;;;;;;;;;21.34;60.71;101227.09;2058614;28;4062;-32
2021/07/03 06:27:11;;;;;;;;;;;;;;;21.34;60.89;101225.06;2059204;28;3943;-33
2021/07/03 06:28:38;;;;;;;;;;;;;;;21.35;60.77;101225.91;2059404;28;3965;-35
2021/07/03 06:30:06;;;;;;;;;;;;;;;21.36;60.82;101230.41;2058088;28;4239;-35
2021/07/03 06:31:33;;;;;;;;;;;;;;;21.38;60.84;101232.94;2059936;28;3969;-32
2021/07/03 06:33:00;;;;;;;;;;;;;;;21.36;60.66;101224.72;2057834;28;4292;-32
2021/07/03 06:34:27;;;;;;;;;;;;;;;21.38;60.63;101230.09;2059634;28;3897;-33
2021/07/03 06:35:54;;;;;;;;;;;;;;;21.38;60.85;101222.38;2056656;28;4074;-34
2021/07/03 06:37:21;;;;;;;;;;;;;;;21.39;60.73;101226.06;2057331;28;3915;-34
2021/07/03 06:38:48;;;;;;;;;;;;;;;21.40;60.76;101237.13;2058267;28;4283;-34
2021/07/03 06:40:15;;;;;;;;;;;;;;;21.40;60.72;101225.72;2059524;28;4071;-35
2021/07/03 06:41:41;;;;;;;;;;;;;;;21.41;60.84;101235.09;2058668;28;3932;-36
2021/07/03 06:43:08;;;;;;;;;;;;;;;21.41;60.80;101235.94;2058846;28;4216;-32
2021/07/03 06:44:35;;;;;;;;;;;;;;;21.41;60.86;101226.56;2059505;28;4060;-34
2021/07/03 06:46:02;;;;;;;;;;;;;;;21.42;60.71;101231.06;2059818;28;4217;-34
2021/07/03 06:47:29;;;;;;;;;;;;;;;21.42;60.84;101229.06;2059943;28;3931;-35
2021/07/03 06:48:56;;;;;;;;;;;;;;;21.43;60.81;101232.75;2059252;28;4427;-36
2021/07/03 06:50:23;;;;;;;;;;;;;;;21.43;60.72;101232.75;2059759;28;3915;-33
2021/07/03 06:51:50;;;;;;;;;;;;;;;21.44;60.62;101226.69;2058601;28;4064;-35
2021/07/03 06:53:17;;;;;;;;;;;;;;;21.45;60.70;101231.22;2059357;28;3962;-31
2021/07/03 06:54:44;;;;;;;;;;;;;;;21.45;60.64;101228.38;2058391;28;4037;-32
2021/07/03 06:56:11;;;;;;;;;;;;;;;21.45;60.82;101230.38;2043567;29;3906;-36
2021/07/03 06:57:38;;;;;;;;;;;;;;;21.46;60.73;101232.06;2043988;29;3929;-31
2021/07/03 06:59:05;;;;;;;;;;;;;;;21.47;60.63;101230.84;2042919;29;4234;-36
2021/07/03 07:00:32;;;;;;;;;;;;;;;21.48;60.66;101235.41;2042803;28;3909;-31
2021/07/03 07:01:59;;;;;;;;;;;;;;;21.48;60.84;101230.53;2043376;29;4261;-36
2021/07/03 07:03:25;;;;;;;;;;;;;;;21.49;60.60;101228.50;2042926;29;3907;-33
2021/07/03 07:04:52;;;;;;;;;;;;;;;21.49;60.67;101222.81;2044035;28;4051;-33
2021/07/03 07:06:19;;;;;;;;;;;;;;;21.48;60.86;101221.97;2043875;29;3989;-36
2021/07/03 07:07:46;;;;;;;;;;;;;;;21.49;60.68;101222.81;2043234;28;4038;-31
2021/07/03 07:09:13;;;;;;;;;;;;;;;21.50;60.85;101225.31;2042723;29;3906;-33
2021/07/03 07:10:39;;;;;;;;;;;;;;;21.50;60.60;101224.47;2044636;28;4499;-33
2021/07/03 07:12:07;;;;;;;;;;;;;;;21.51;60.79;101226.16;2042284;29;4116;-35
2021/07/03 07:13:33;;;;;;;;;;;;;;;21.51;60.58;101223.31;2040474;28;3980;-31
2021/07/03 07:15:00;;;;;;;;;;;;;;;21.51;60.69;101224.13;2043564;28;4213;-35
2021/07/03 07:16:27;;;;;;;;;;;;;;;21.51;60.76;101218.44;2042630;28;4011;-32
2021/07/03 07:17:54;;;;;;;;;;;;;;;21.53;60.68;101226.63;2043056;29;4368;-34
2021/07/03 07:19:21;;;;;;;;;;;;;;;21.53;60.63;101223.78;2043753;28;3953;-36
2021/07/03 07:20:47;;;;;;;;;;;;;;;21.53;60.66;101223.78;2041574;29;4393;-34
2021/07/03 07:22:15;;;;;;;;;;;;;;;21.54;60.72;101216.91;2042523;28;3965;-33
2021/07/03 07:23:42;;;;;;;;;;;;;;;21.54;60.76;101222.59;2042330;28;3890;-36
2021/07/03 07:25:09;;;;;;;;;;;;;;;21.55;60.62;101215.72;2041585;28;4249;-37
2021/07/03 07:26:36;;;;;;;;;;;;;;;21.54;60.90;101216.91;2043918;28;3933;-35
2021/07/03 07:28:03;;;;;;;;;;;;;;;21.55;60.79;101218.56;2041846;28;4261;-37
2021/07/03 07:29:30;;;;;;;;;;;;;;;21.55;60.77;101212.88;2041924;28;3951;-37
2021/07/03 07:30:57;;;;;;;;;;;;;;;21.56;60.76;101212.53;2042431;28;4078;-31
2021/07/03 07:32:25;;;;;;;;;;;;;;;21.56;60.63;101206.03;2043057;28;4103;-35
2021/07/03 07:33:52;;;;;;;;;;;;;;;21.57;60.64;101210.53;2043313;28;4270;-35